createdAt,value
2018-11-07T00:00:52.968Z,100.00
2018-11-07T00:03:20.204Z,100.00
2018-11-07T00:05:47.397Z,100.00
2018-11-07T00:08:14.815Z,100.00
2018-11-07T00:10:41.913Z,100.00
2018-11-07T00:13:09.141Z,100.00
2018-11-07T00:15:36.380Z,100.00
2018-11-07T00:18:03.665Z,100.00
2018-11-07T00:20:30.872Z,100.00
2018-11-07T00:22:58.083Z,100.00
2018-11-07T00:25:25.281Z,100.00
2018-11-07T00:27:52.525Z,100.00
2018-11-07T00:30:19.761Z,100.00
2018-11-07T00:32:46.917Z,100.00
2018-11-07T00:35:14.122Z,100.00
2018-11-07T00:37:41.999Z,100.00
2018-11-07T00:40:09.248Z,100.00
2018-11-07T00:42:36.439Z,100.00
2018-11-07T00:45:04.740Z,100.00
2018-11-07T00:47:31.919Z,100.00
2018-11-07T00:49:59.084Z,100.00
2018-11-07T00:52:26.280Z,100.00
2018-11-07T00:54:53.424Z,100.00
2018-11-07T00:57:20.568Z,100.00
2018-11-07T00:59:47.724Z,100.00
2018-11-07T01:02:15.040Z,100.00
2018-11-07T01:04:42.223Z,100.00
2018-11-07T01:07:09.437Z,100.00
2018-11-07T01:09:36.771Z,100.00
2018-11-07T01:12:04.308Z,100.00
2018-11-07T01:14:31.541Z,100.00
2018-11-07T01:16:58.732Z,100.00
2018-11-07T01:19:25.872Z,100.00
2018-11-07T01:21:52.998Z,100.00
2018-11-07T01:24:20.156Z,100.00
2018-11-07T01:26:47.311Z,100.00
2018-11-07T01:29:14.464Z,100.00
2018-11-07T01:31:41.702Z,100.00
2018-11-07T01:34:08.923Z,100.00
2018-11-07T01:36:36.151Z,100.00
2018-11-07T01:39:05.093Z,100.00
2018-11-07T01:41:32.286Z,100.00
2018-11-07T01:43:59.423Z,100.00
2018-11-07T01:46:26.608Z,100.00
2018-11-07T01:48:53.815Z,100.00
2018-11-07T01:51:21.022Z,100.00
2018-11-07T01:53:48.155Z,100.00
2018-11-07T01:56:15.426Z,100.00
2018-11-07T01:58:42.665Z,100.00
2018-11-07T02:01:09.841Z,100.00
2018-11-07T02:03:36.988Z,100.00
2018-11-07T02:06:04.200Z,100.00
2018-11-07T02:08:31.609Z,100.00
2018-11-07T02:10:59.636Z,100.00
2018-11-07T02:13:26.820Z,100.00
2018-11-07T02:15:53.974Z,100.00
2018-11-07T02:18:21.127Z,100.00
2018-11-07T02:20:48.348Z,100.00
2018-11-07T02:23:15.509Z,100.00
2018-11-07T02:25:42.687Z,100.00
2018-11-07T02:28:09.935Z,100.00
2018-11-07T02:30:37.162Z,100.00
2018-11-07T02:33:04.381Z,100.00
2018-11-07T02:35:31.562Z,100.00
2018-11-07T02:37:58.714Z,100.00
2018-11-07T02:40:25.936Z,100.00
2018-11-07T02:42:53.124Z,100.00
2018-11-07T02:45:20.463Z,100.00
2018-11-07T02:47:47.638Z,100.00
2018-11-07T02:50:14.848Z,100.00
2018-11-07T02:52:42.041Z,100.00
2018-11-07T02:55:09.248Z,100.00
2018-11-07T02:57:36.562Z,100.00
2018-11-07T03:00:11.880Z,100.00
2018-11-07T03:02:39.095Z,100.00
2018-11-07T03:05:06.289Z,100.00
2018-11-07T03:07:33.428Z,100.00
2018-11-07T03:10:00.734Z,100.00
2018-11-07T03:12:27.917Z,100.00
2018-11-07T03:14:55.105Z,100.00
2018-11-07T03:17:22.304Z,100.00
2018-11-07T03:19:49.492Z,100.00
2018-11-07T03:22:16.660Z,100.00
2018-11-07T03:24:43.809Z,100.00
2018-11-07T03:27:11.022Z,100.00
2018-11-07T03:29:38.224Z,100.00
2018-11-07T03:32:05.488Z,100.00
2018-11-07T03:34:32.668Z,100.00
2018-11-07T03:36:59.875Z,100.00
2018-11-07T03:39:27.128Z,100.00
2018-11-07T03:41:54.264Z,100.00
2018-11-07T03:44:21.500Z,100.00
2018-11-07T03:46:48.672Z,100.00
2018-11-07T03:49:15.876Z,100.00
2018-11-07T03:51:43.111Z,100.00
2018-11-07T03:54:10.291Z,100.00
2018-11-07T03:56:37.468Z,100.00
2018-11-07T03:59:04.601Z,100.00
2018-11-07T04:01:31.760Z,100.00
2018-11-07T04:03:58.964Z,100.00
2018-11-07T04:06:26.143Z,100.00
2018-11-07T04:08:53.361Z,100.00
2018-11-07T04:11:20.564Z,100.00
2018-11-07T04:13:47.741Z,100.00
2018-11-07T04:16:14.926Z,100.00
2018-11-07T04:18:42.151Z,100.00
2018-11-07T04:21:09.317Z,100.00
2018-11-07T04:23:36.578Z,100.00
2018-11-07T04:26:04.576Z,100.00
2018-11-07T04:28:31.796Z,100.00
2018-11-07T04:30:58.992Z,100.00
2018-11-07T04:33:26.204Z,100.00
2018-11-07T04:35:53.383Z,100.00
2018-11-07T04:38:20.607Z,100.00
2018-11-07T04:40:47.787Z,100.00
2018-11-07T04:43:14.983Z,100.00
2018-11-07T04:45:42.156Z,100.00
2018-11-07T04:48:09.409Z,100.00
2018-11-07T04:50:36.575Z,100.00
2018-11-07T04:53:03.981Z,100.00
2018-11-07T04:55:31.199Z,100.00
2018-11-07T04:57:58.432Z,100.00
2018-11-07T05:00:25.712Z,100.00
2018-11-07T05:02:52.967Z,100.00
2018-11-07T05:05:20.200Z,100.00
2018-11-07T05:07:47.390Z,100.00
2018-11-07T05:10:14.576Z,100.00
2018-11-07T05:12:41.766Z,100.00
2018-11-07T05:15:09.599Z,100.00
2018-11-07T05:17:36.800Z,100.00
2018-11-07T05:20:05.576Z,100.00
2018-11-07T05:22:32.789Z,100.00
2018-11-07T05:25:00.093Z,100.00
2018-11-07T05:27:27.293Z,100.00
2018-11-07T05:29:54.455Z,100.00
2018-11-07T05:32:21.700Z,100.00
2018-11-07T05:34:48.936Z,100.00
2018-11-07T05:37:16.103Z,100.00
2018-11-07T05:39:43.256Z,100.00
2018-11-07T05:42:11.598Z,100.00
2018-11-07T05:44:38.863Z,100.00
2018-11-07T05:47:06.104Z,100.00
2018-11-07T05:49:33.273Z,100.00
2018-11-07T05:52:00.502Z,100.00
2018-11-07T05:54:27.664Z,100.00
2018-11-07T05:56:54.843Z,100.00
2018-11-07T05:59:22.000Z,100.00
2018-11-07T06:01:49.202Z,100.00
2018-11-07T06:04:16.360Z,100.00
2018-11-07T06:06:43.547Z,100.00
2018-11-07T06:09:10.724Z,100.00
2018-11-07T06:11:37.920Z,100.00
2018-11-07T06:14:05.400Z,100.00
2018-11-07T06:16:32.549Z,100.00
2018-11-07T06:18:59.752Z,100.00
2018-11-07T06:21:26.952Z,100.00
2018-11-07T06:23:54.196Z,100.00
2018-11-07T06:26:21.348Z,100.00
2018-11-07T06:28:48.570Z,100.00
2018-11-07T06:31:15.748Z,100.00
2018-11-07T06:33:43.100Z,100.00
2018-11-07T06:36:10.433Z,100.00
2018-11-07T06:38:37.649Z,100.00
2018-11-07T06:41:04.885Z,100.00
2018-11-07T06:43:32.096Z,100.00
2018-11-07T06:45:59.259Z,100.00
2018-11-07T06:48:26.484Z,100.00
2018-11-07T06:50:53.684Z,100.00
2018-11-07T06:53:20.953Z,100.00
2018-11-07T06:55:48.166Z,100.00
2018-11-07T06:58:15.329Z,100.00
2018-11-07T07:00:42.538Z,100.00
2018-11-07T07:03:09.757Z,100.00
2018-11-07T07:05:36.998Z,100.00
2018-11-07T07:08:04.396Z,100.00
2018-11-07T07:10:31.567Z,100.00
2018-11-07T07:12:58.800Z,100.00
2018-11-07T07:15:25.989Z,100.00
2018-11-07T07:17:53.227Z,100.00
2018-11-07T07:20:20.788Z,100.00
2018-11-07T07:22:48.547Z,100.00
2018-11-07T07:25:15.886Z,100.00
2018-11-07T07:27:43.901Z,100.00
2018-11-07T07:30:12.744Z,100.00
2018-11-07T07:32:40.776Z,100.00
2018-11-07T07:35:07.972Z,100.00
2018-11-07T07:37:35.183Z,100.00
2018-11-07T07:40:03.239Z,100.00
2018-11-07T07:42:30.759Z,100.00
2018-11-07T07:44:57.912Z,100.00
2018-11-07T07:47:25.065Z,100.00
2018-11-07T07:49:52.301Z,100.00
2018-11-07T07:52:19.450Z,100.00
2018-11-07T07:54:46.724Z,100.00
2018-11-07T07:57:13.969Z,100.00
2018-11-07T07:59:41.088Z,100.00
2018-11-07T08:02:08.250Z,100.00
2018-11-07T08:04:35.437Z,100.00
2018-11-07T08:07:02.743Z,100.00
2018-11-07T08:09:29.773Z,100.00
2018-11-07T08:11:56.920Z,100.00
2018-11-07T08:14:24.097Z,100.00
2018-11-07T08:16:51.828Z,100.00
2018-11-07T08:19:19.020Z,100.00
2018-11-07T08:21:46.262Z,100.00
2018-11-07T08:24:13.416Z,100.00
2018-11-07T08:26:40.568Z,100.00
2018-11-07T08:29:07.770Z,100.00
2018-11-07T08:31:34.982Z,100.00
2018-11-07T08:34:02.189Z,100.00
2018-11-07T08:36:29.508Z,100.00
2018-11-07T08:38:57.541Z,100.00
2018-11-07T08:41:24.784Z,100.00
2018-11-07T08:43:51.921Z,100.00
2018-11-07T08:46:19.420Z,100.00
2018-11-07T08:48:46.639Z,100.00
2018-11-07T08:51:14.201Z,100.00
2018-11-07T08:53:41.376Z,100.00
2018-11-07T08:56:08.539Z,100.00
2018-11-07T08:58:35.741Z,100.00
2018-11-07T09:01:03.017Z,100.00
2018-11-07T09:03:30.228Z,100.00
2018-11-07T09:05:58.140Z,100.00
2018-11-07T09:08:25.326Z,100.00
2018-11-07T09:10:52.929Z,100.00
2018-11-07T09:13:20.249Z,100.00
2018-11-07T09:15:47.578Z,100.00
2018-11-07T09:18:14.796Z,100.00
2018-11-07T09:20:41.981Z,100.00
2018-11-07T09:23:09.225Z,100.00
2018-11-07T09:25:36.376Z,100.00
2018-11-07T09:28:03.623Z,100.00
2018-11-07T09:30:31.722Z,100.00
2018-11-07T09:32:59.937Z,100.00
2018-11-07T09:35:27.822Z,100.00
2018-11-07T09:37:55.115Z,100.00
2018-11-07T09:40:22.369Z,100.00
2018-11-07T09:42:50.043Z,100.00
2018-11-07T09:45:18.592Z,100.00
2018-11-07T09:47:46.669Z,100.00
2018-11-07T09:50:15.427Z,100.00
2018-11-07T09:52:43.096Z,100.00
2018-11-07T09:55:12.227Z,100.00
2018-11-07T09:57:39.845Z,100.00
2018-11-07T10:00:09.150Z,100.00
2018-11-07T10:02:36.695Z,100.00
2018-11-07T10:05:04.613Z,100.00
2018-11-07T10:07:31.848Z,100.00
2018-11-07T10:09:59.054Z,100.00
2018-11-07T10:12:33.166Z,100.00
2018-11-07T10:15:00.393Z,100.00
2018-11-07T10:17:28.251Z,100.00
2018-11-07T10:19:55.537Z,100.00
2018-11-07T10:22:22.751Z,100.00
2018-11-07T10:24:50.349Z,100.00
2018-11-07T10:27:17.700Z,100.00
2018-11-07T10:29:45.144Z,100.00
2018-11-07T10:32:12.178Z,100.00
2018-11-07T10:34:39.485Z,100.00
2018-11-07T10:37:06.629Z,100.00
2018-11-07T10:39:33.823Z,100.00
2018-11-07T10:42:01.021Z,100.00
2018-11-07T10:44:28.307Z,100.00
2018-11-07T10:46:55.529Z,100.00
2018-11-07T10:49:22.752Z,100.00
2018-11-07T10:51:50.456Z,100.00
2018-11-07T10:54:17.613Z,100.00
2018-11-07T10:56:44.751Z,100.00
2018-11-07T10:59:12.917Z,100.00
2018-11-07T11:01:45.829Z,100.00
2018-11-07T11:04:13.178Z,100.00
2018-11-07T11:06:40.498Z,100.00
2018-11-07T11:09:07.969Z,100.00
2018-11-07T11:11:35.101Z,100.00
2018-11-07T11:14:02.461Z,100.00
2018-11-07T11:16:29.733Z,100.00
2018-11-07T11:18:56.864Z,100.00
2018-11-07T11:21:24.047Z,100.00
2018-11-07T11:23:51.285Z,100.00
2018-11-07T11:26:18.457Z,100.00
2018-11-07T11:28:45.702Z,100.00
2018-11-07T11:31:12.877Z,100.00
2018-11-07T11:33:40.356Z,100.00
2018-11-07T11:36:07.587Z,100.00
2018-11-07T11:38:34.806Z,100.00
2018-11-07T11:41:02.132Z,100.00
2018-11-07T11:43:29.235Z,100.00
2018-11-07T11:45:56.395Z,100.00
2018-11-07T11:48:23.600Z,100.00
2018-11-07T11:50:50.909Z,100.00
2018-11-07T11:53:18.086Z,100.00
2018-11-07T11:55:45.236Z,100.00
2018-11-07T11:58:12.437Z,100.00
2018-11-07T12:00:39.639Z,100.00
2018-11-07T12:03:06.774Z,100.00
2018-11-07T12:05:33.932Z,100.00
2018-11-07T12:08:01.152Z,100.00
2018-11-07T12:10:28.281Z,100.00
2018-11-07T12:12:56.561Z,100.00
2018-11-07T12:15:24.999Z,100.00
2018-11-07T12:17:52.604Z,100.00
2018-11-07T12:20:19.871Z,100.00
2018-11-07T12:22:47.106Z,100.00
2018-11-07T12:25:14.993Z,100.00
2018-11-07T12:27:42.516Z,100.00
2018-11-07T12:30:12.063Z,100.00
2018-11-07T12:32:39.260Z,100.00
2018-11-07T12:35:06.464Z,100.00
2018-11-07T12:37:33.675Z,100.00
2018-11-07T12:40:00.907Z,100.00
2018-11-07T12:42:28.261Z,100.00
2018-11-07T12:44:55.550Z,100.00
2018-11-07T12:47:22.713Z,100.00
2018-11-07T12:49:49.982Z,99.55
2018-11-07T12:52:17.012Z,95.75
2018-11-07T12:54:44.196Z,92.83
2018-11-07T12:57:11.390Z,91.28
2018-11-07T12:59:38.586Z,90.17
2018-11-07T13:02:05.788Z,88.92
2018-11-07T13:04:33.004Z,86.91
2018-11-07T13:07:00.157Z,85.25
2018-11-07T13:09:27.342Z,85.60
2018-11-07T13:11:54.541Z,84.90
2018-11-07T13:14:21.686Z,86.17
2018-11-07T13:16:48.878Z,87.34
2018-11-07T13:19:16.076Z,88.70
2018-11-07T13:21:43.253Z,88.92
2018-11-07T13:24:10.430Z,92.83
2018-11-07T13:26:37.560Z,96.04
2018-11-07T13:29:04.733Z,99.05
2018-11-07T13:31:31.882Z,98.78
2018-11-07T13:33:59.082Z,95.20
2018-11-07T13:36:26.277Z,91.38
2018-11-07T13:38:53.944Z,86.22
2018-11-07T13:41:20.742Z,83.00
2018-11-07T13:43:47.936Z,81.31
2018-11-07T13:46:15.303Z,81.24
2018-11-07T13:48:42.513Z,80.81
2018-11-07T13:51:10.263Z,80.37
2018-11-07T13:53:37.550Z,79.74
2018-11-07T13:56:04.853Z,79.34
2018-11-07T13:58:31.978Z,78.04
2018-11-07T14:00:59.156Z,76.79
2018-11-07T14:03:26.390Z,77.64
2018-11-07T14:05:53.646Z,77.48
2018-11-07T14:08:20.840Z,76.29
2018-11-07T14:10:48.004Z,76.22
2018-11-07T14:13:15.189Z,76.63
2018-11-07T14:15:42.460Z,78.65
2018-11-07T14:18:09.749Z,77.77
2018-11-07T14:20:37.125Z,77.65
2018-11-07T14:23:04.337Z,76.59
2018-11-07T14:25:31.620Z,77.11
2018-11-07T14:27:59.002Z,76.94
2018-11-07T14:30:26.154Z,77.44
2018-11-07T14:32:56.629Z,79.40
2018-11-07T14:35:23.945Z,79.59
2018-11-07T14:37:51.599Z,79.31
2018-11-07T14:40:18.812Z,79.13
2018-11-07T14:42:45.978Z,80.03
2018-11-07T14:45:13.241Z,80.38
2018-11-07T14:47:41.264Z,80.45
2018-11-07T14:50:09.577Z,83.32
2018-11-07T14:52:37.147Z,85.07
2018-11-07T14:55:07.360Z,84.95
2018-11-07T14:57:35.196Z,85.64
2018-11-07T15:00:02.566Z,87.03
2018-11-07T15:02:29.782Z,86.97
2018-11-07T15:04:57.016Z,87.31
2018-11-07T15:07:24.194Z,89.51
2018-11-07T15:09:51.403Z,89.99
2018-11-07T15:12:18.668Z,91.95
2018-11-07T15:14:45.884Z,91.84
2018-11-07T15:17:13.187Z,93.34
2018-11-07T15:19:40.342Z,95.29
2018-11-07T15:22:07.789Z,96.69
2018-11-07T15:24:34.968Z,98.28
2018-11-07T15:27:02.180Z,98.39
2018-11-07T15:29:29.388Z,96.62
2018-11-07T15:31:56.537Z,97.53
2018-11-07T15:34:23.749Z,99.03
2018-11-07T15:36:50.905Z,100.00
2018-11-07T15:39:18.121Z,100.00
2018-11-07T15:41:45.338Z,100.00
2018-11-07T15:44:19.165Z,100.00
2018-11-07T15:46:46.343Z,100.00
2018-11-07T15:49:13.713Z,100.00
2018-11-07T15:51:40.938Z,100.00
2018-11-07T15:54:08.158Z,100.00
2018-11-07T15:56:35.705Z,100.00
2018-11-07T15:59:03.066Z,100.00
2018-11-07T16:01:30.555Z,100.00
2018-11-07T16:03:59.154Z,100.00
2018-11-07T16:06:26.732Z,100.00
2018-11-07T16:08:55.415Z,100.00
2018-11-07T16:11:22.659Z,100.00
2018-11-07T16:13:50.039Z,100.00
2018-11-07T16:16:17.118Z,100.00
2018-11-07T16:18:44.380Z,100.00
2018-11-07T16:21:11.598Z,100.00
2018-11-07T16:23:38.785Z,100.00
2018-11-07T16:26:06.029Z,100.00
2018-11-07T16:28:33.237Z,100.00
2018-11-07T16:31:00.482Z,100.00
2018-11-07T16:33:27.703Z,100.00
2018-11-07T16:35:54.966Z,100.00
2018-11-07T16:38:22.256Z,100.00
2018-11-07T16:40:49.531Z,100.00
2018-11-07T16:43:16.693Z,100.00
2018-11-07T16:45:43.861Z,100.00
2018-11-07T16:48:11.040Z,100.00
2018-11-07T16:50:38.483Z,100.00
2018-11-07T16:53:05.900Z,100.00
2018-11-07T16:55:33.177Z,100.00
2018-11-07T16:58:00.613Z,100.00
2018-11-07T17:00:27.928Z,100.00
2018-11-07T17:02:57.481Z,100.00
2018-11-07T17:05:24.740Z,100.00
2018-11-07T17:07:52.140Z,100.00
2018-11-07T17:10:19.343Z,100.00
2018-11-07T17:12:46.567Z,100.00
2018-11-07T17:15:14.036Z,100.00
2018-11-07T17:17:41.293Z,100.00
2018-11-07T17:20:10.121Z,100.00
2018-11-07T17:22:37.386Z,100.00
2018-11-07T17:25:07.750Z,100.00
2018-11-07T17:27:35.156Z,100.00
2018-11-07T17:30:02.750Z,100.00
2018-11-07T17:32:29.963Z,100.00
2018-11-07T17:34:57.205Z,100.00
2018-11-07T17:37:24.872Z,100.00
2018-11-07T17:39:52.685Z,100.00
2018-11-07T17:42:19.906Z,100.00
2018-11-07T17:44:47.146Z,100.00
2018-11-07T17:47:14.390Z,100.00
2018-11-07T17:49:41.554Z,100.00
2018-11-07T17:52:08.797Z,100.00
2018-11-07T17:54:36.024Z,100.00
2018-11-07T17:57:03.232Z,100.00
2018-11-07T17:59:30.435Z,100.00
2018-11-07T18:01:57.638Z,100.00
2018-11-07T18:04:24.845Z,100.00
2018-11-07T18:06:52.093Z,100.00
2018-11-07T18:09:19.337Z,100.00
2018-11-07T18:11:46.516Z,100.00
2018-11-07T18:14:13.672Z,100.00
2018-11-07T18:16:40.884Z,100.00
2018-11-07T18:19:08.518Z,100.00
2018-11-07T18:21:35.676Z,100.00
2018-11-07T18:24:02.913Z,100.00
2018-11-07T18:26:30.161Z,100.00
2018-11-07T18:28:57.513Z,100.00
2018-11-07T18:31:24.718Z,100.00
2018-11-07T18:33:51.979Z,100.00
2018-11-07T18:36:19.298Z,100.00
2018-11-07T18:38:46.490Z,100.00
2018-11-07T18:41:13.776Z,100.00
2018-11-07T18:43:40.981Z,100.00
2018-11-07T18:46:08.188Z,100.00
2018-11-07T18:48:35.359Z,100.00
2018-11-07T18:51:02.555Z,100.00
2018-11-07T18:53:29.758Z,100.00
2018-11-07T18:55:56.937Z,100.00
2018-11-07T18:58:24.351Z,100.00
2018-11-07T19:00:51.657Z,100.00
2018-11-07T19:03:18.913Z,100.00
2018-11-07T19:05:46.251Z,100.00
2018-11-07T19:08:13.514Z,100.00
2018-11-07T19:10:40.757Z,100.00
2018-11-07T19:13:07.967Z,100.00
2018-11-07T19:15:35.253Z,100.00
2018-11-07T19:18:02.472Z,100.00
2018-11-07T19:20:29.718Z,100.00
2018-11-07T19:22:56.911Z,100.00
2018-11-07T19:25:24.182Z,100.00
2018-11-07T19:27:51.353Z,100.00
2018-11-07T19:30:19.792Z,100.00
2018-11-07T19:32:48.067Z,100.00
2018-11-07T19:35:16.221Z,100.00
2018-11-07T19:37:43.925Z,100.00
2018-11-07T19:40:12.597Z,100.00
2018-11-07T19:42:39.987Z,100.00
2018-11-07T19:45:09.348Z,100.00
2018-11-07T19:47:37.133Z,100.00
2018-11-07T19:50:05.953Z,100.00
2018-11-07T19:52:33.212Z,100.00
2018-11-07T19:55:00.489Z,100.00
2018-11-07T19:57:27.671Z,100.00
2018-11-07T19:59:54.868Z,100.00
2018-11-07T20:02:22.258Z,100.00
2018-11-07T20:04:49.538Z,100.00
2018-11-07T20:07:16.829Z,100.00
2018-11-07T20:09:44.089Z,100.00
2018-11-07T20:12:11.450Z,100.00
2018-11-07T20:14:38.719Z,100.00
2018-11-07T20:17:06.315Z,100.00
2018-11-07T20:19:33.579Z,100.00
2018-11-07T20:22:00.827Z,100.00
2018-11-07T20:24:28.085Z,100.00
2018-11-07T20:26:55.435Z,100.00
2018-11-07T20:29:22.696Z,100.00
2018-11-07T20:31:50.033Z,100.00
2018-11-07T20:34:17.286Z,100.00
2018-11-07T20:36:44.704Z,100.00
2018-11-07T20:39:13.048Z,100.00
2018-11-07T20:41:40.970Z,100.00
2018-11-07T20:44:09.084Z,100.00
2018-11-07T20:46:36.469Z,100.00
2018-11-07T20:49:04.327Z,100.00
2018-11-07T20:51:31.484Z,100.00
2018-11-07T20:53:59.138Z,100.00
2018-11-07T20:56:26.340Z,100.00
2018-11-07T20:58:53.517Z,100.00
2018-11-07T21:01:20.811Z,100.00
2018-11-07T21:03:48.105Z,100.00
2018-11-07T21:06:15.286Z,100.00
2018-11-07T21:08:42.596Z,100.00
2018-11-07T21:11:16.775Z,100.00
2018-11-07T21:13:44.042Z,100.00
2018-11-07T21:16:11.209Z,100.00
2018-11-07T21:18:38.666Z,100.00
2018-11-07T21:21:05.914Z,100.00
2018-11-07T21:23:33.184Z,100.00
2018-11-07T21:26:00.424Z,100.00
2018-11-07T21:28:27.667Z,100.00
2018-11-07T21:30:54.875Z,100.00
2018-11-07T21:33:22.157Z,100.00
2018-11-07T21:35:50.322Z,100.00
2018-11-07T21:38:17.583Z,100.00
2018-11-07T21:40:44.824Z,100.00
2018-11-07T21:43:12.354Z,100.00
2018-11-07T21:45:39.602Z,100.00
2018-11-07T21:48:06.860Z,100.00
2018-11-07T21:50:34.067Z,100.00
2018-11-07T21:53:01.285Z,100.00
2018-11-07T21:55:28.476Z,100.00
2018-11-07T21:57:55.718Z,100.00
2018-11-07T22:00:23.012Z,100.00
2018-11-07T22:02:50.281Z,100.00
2018-11-07T22:05:17.762Z,100.00
2018-11-07T22:07:45.024Z,100.00
2018-11-07T22:10:13.480Z,100.00
2018-11-07T22:12:40.760Z,100.00
2018-11-07T22:15:08.926Z,100.00
2018-11-07T22:17:36.261Z,100.00
2018-11-07T22:20:09.803Z,100.00
2018-11-07T22:22:37.049Z,100.00
2018-11-07T22:25:04.916Z,100.00
2018-11-07T22:27:32.176Z,100.00
2018-11-07T22:29:59.720Z,100.00
2018-11-07T22:32:27.115Z,100.00
2018-11-07T22:34:54.364Z,100.00
2018-11-07T22:37:21.607Z,100.00
2018-11-07T22:39:48.854Z,100.00
2018-11-07T22:42:16.093Z,100.00
2018-11-07T22:44:43.276Z,100.00
2018-11-07T22:47:10.518Z,100.00
2018-11-07T22:49:37.850Z,100.00
2018-11-07T22:52:05.501Z,100.00
2018-11-07T22:54:32.698Z,100.00
2018-11-07T22:57:00.221Z,100.00
2018-11-07T22:59:27.408Z,100.00
2018-11-07T23:01:54.673Z,100.00
2018-11-07T23:04:21.881Z,100.00
2018-11-07T23:41:12.359Z,100.00
2018-11-07T23:43:39.661Z,100.00
2018-11-07T23:54:38.176Z,100.00
2018-11-07T23:57:05.564Z,100.00
2018-11-07T23:59:32.775Z,100.00
